createdAt,value
2023-04-07T00:01:25.640Z,97.20
2023-04-07T00:03:52.545Z,97.00
2023-04-07T00:06:19.443Z,97.00
2023-04-07T00:08:46.196Z,97.20
2023-04-07T00:11:12.949Z,97.20
2023-04-07T00:13:39.714Z,97.70
2023-04-07T00:16:06.647Z,97.90
2023-04-07T00:18:33.414Z,97.50
2023-04-07T00:21:00.286Z,97.10
2023-04-07T00:23:27.272Z,97.60
2023-04-07T00:25:54.233Z,96.50
2023-04-07T00:28:20.931Z,96.40
2023-04-07T00:30:47.680Z,96.60
2023-04-07T00:33:14.509Z,96.70
2023-04-07T00:35:41.304Z,96.50
2023-04-07T00:38:08.039Z,97.00
2023-04-07T00:40:34.872Z,96.80
2023-04-07T00:43:01.651Z,97.10
2023-04-07T00:45:28.399Z,97.30
2023-04-07T00:47:58.043Z,97.10
2023-04-07T00:50:25.189Z,97.50
2023-04-07T00:52:52.101Z,97.30
2023-04-07T00:55:18.897Z,97.70
2023-04-07T00:57:46.767Z,97.60
2023-04-07T01:00:13.826Z,97.20
2023-04-07T01:03:09.576Z,96.80
2023-04-07T01:05:41.278Z,97.00
2023-04-07T01:10:41.837Z,97.10
2023-04-07T01:13:59.596Z,96.90
2023-04-07T01:16:37.083Z,97.10
2023-04-07T01:19:48.885Z,97.40
2023-04-07T01:22:23.880Z,97.60
2023-04-07T01:25:22.094Z,97.70
2023-04-07T01:27:51.767Z,97.70
2023-04-07T01:30:19.298Z,97.50
2023-04-07T01:32:51.873Z,97.50
2023-04-07T01:35:19.934Z,97.40
2023-04-07T01:37:49.415Z,97.60
2023-04-07T01:40:17.285Z,97.00
2023-04-07T01:42:46.016Z,97.00
2023-04-07T01:45:13.338Z,96.60
2023-04-07T01:47:41.286Z,96.60
2023-04-07T01:50:09.846Z,96.70
2023-04-07T01:52:36.970Z,96.80
2023-04-07T01:55:07.486Z,96.70
2023-04-07T01:57:34.195Z,96.70
2023-04-07T02:00:00.934Z,97.20
2023-04-07T02:02:28.743Z,97.30
2023-04-07T02:04:57.328Z,97.90
2023-04-07T02:07:58.488Z,97.90
2023-04-07T02:10:28.084Z,98.20
2023-04-07T02:12:57.181Z,98.50
2023-04-07T02:15:25.085Z,98.90
2023-04-07T02:17:54.488Z,99.30
2023-04-07T02:20:22.329Z,99.40
2023-04-07T02:22:49.242Z,99.70
2023-04-07T02:25:30.772Z,99.70
2023-04-07T02:27:59.774Z,99.70
2023-04-07T02:30:27.542Z,99.50
2023-04-07T02:32:54.884Z,99.90
2023-04-07T02:35:21.786Z,99.90
2023-04-07T02:37:48.882Z,99.90
2023-04-07T02:40:15.816Z,99.90
2023-04-07T02:42:43.274Z,99.90
2023-04-07T02:45:11.248Z,99.90
2023-04-07T02:47:38.951Z,99.90
2023-04-07T02:50:06.484Z,99.90
2023-04-07T02:52:33.203Z,99.90
2023-04-07T02:54:59.929Z,99.90
2023-04-07T02:57:26.658Z,99.90
2023-04-07T02:59:55.207Z,99.90
2023-04-07T03:02:22.037Z,99.90
2023-04-07T03:04:48.896Z,99.90
2023-04-07T03:07:15.794Z,99.90
2023-04-07T03:09:42.486Z,99.90
2023-04-07T03:12:09.159Z,99.90
2023-04-07T03:14:36.110Z,99.90
2023-04-07T03:17:03.786Z,99.90
2023-04-07T03:19:30.598Z,99.90
2023-04-07T03:21:57.389Z,99.90
2023-04-07T03:24:24.086Z,99.90
2023-04-07T03:26:51.613Z,99.90
2023-04-07T03:29:18.873Z,99.90
2023-04-07T03:34:13.427Z,99.90
2023-04-07T03:36:40.231Z,99.90
2023-04-07T03:39:06.939Z,99.90
2023-04-07T03:41:33.685Z,99.90
2023-04-07T03:44:00.484Z,99.90
2023-04-07T03:46:27.472Z,99.90
2023-04-07T03:48:54.227Z,99.90
2023-04-07T03:51:21.088Z,99.90
2023-04-07T03:53:47.817Z,99.90
2023-04-07T03:56:14.677Z,99.90
2023-04-07T03:58:42.766Z,99.90
2023-04-07T04:01:09.671Z,99.90
2023-04-07T04:03:36.570Z,99.90
2023-04-07T04:06:03.625Z,99.90
2023-04-07T04:08:31.060Z,99.90
2023-04-07T04:10:57.812Z,99.90
2023-04-07T04:13:24.593Z,99.90
2023-04-07T04:15:51.436Z,99.90
2023-04-07T04:20:45.437Z,99.90
2023-04-07T04:23:12.169Z,99.90
2023-04-07T04:25:40.758Z,99.90
2023-04-07T04:28:07.528Z,99.90
2023-04-07T04:30:34.229Z,99.90
2023-04-07T04:33:01.099Z,99.90
2023-04-07T04:35:27.796Z,99.90
2023-04-07T04:37:54.819Z,99.90
2023-04-07T04:40:21.710Z,99.90
2023-04-07T04:42:48.419Z,99.90
2023-04-07T04:45:15.204Z,99.90
2023-04-07T04:47:43.933Z,99.90
2023-04-07T04:50:11.157Z,99.90
2023-04-07T04:52:39.145Z,99.90
2023-04-07T04:55:06.584Z,99.90
2023-04-07T05:00:04.318Z,99.90
2023-04-07T05:04:58.893Z,99.90
2023-04-07T05:07:26.067Z,99.90
2023-04-07T05:09:52.888Z,99.90
2023-04-07T05:12:19.689Z,99.90
2023-04-07T05:14:46.385Z,99.90
2023-04-07T05:17:13.134Z,99.90
2023-04-07T05:19:40.707Z,99.90
2023-04-07T05:22:07.418Z,99.90
2023-04-07T05:24:34.254Z,99.90
2023-04-07T05:27:01.809Z,99.90
2023-04-07T05:29:28.653Z,99.90
2023-04-07T05:31:55.460Z,99.90
2023-04-07T05:34:22.236Z,99.90
2023-04-07T05:36:48.995Z,99.90
2023-04-07T05:39:15.901Z,99.90
2023-04-07T05:41:42.678Z,99.90
2023-04-07T05:44:09.389Z,99.90
2023-04-07T05:46:36.056Z,99.90
2023-04-07T05:51:47.549Z,99.90
2023-04-07T05:54:15.727Z,99.90
2023-04-07T05:56:42.474Z,99.90
2023-04-07T05:59:09.984Z,99.80
2023-04-07T06:01:36.692Z,99.90
2023-04-07T06:04:04.274Z,99.20
2023-04-07T06:06:31.391Z,98.50
2023-04-07T06:08:58.249Z,98.80
2023-04-07T06:11:27.121Z,98.50
2023-04-07T06:13:53.827Z,98.70
2023-04-07T06:16:20.809Z,98.20
2023-04-07T06:18:47.650Z,98.00
2023-04-07T06:21:14.417Z,98.40
2023-04-07T06:23:41.169Z,97.80
2023-04-07T06:26:12.011Z,97.80
2023-04-07T06:28:39.567Z,97.90
2023-04-07T06:31:07.140Z,97.70
2023-04-07T06:33:34.002Z,97.60
2023-04-07T06:36:00.801Z,97.30
2023-04-07T06:38:27.652Z,97.20
2023-04-07T06:40:54.372Z,97.30
2023-04-07T06:43:21.204Z,97.40
2023-04-07T06:45:48.044Z,97.00
2023-04-07T06:48:14.887Z,97.40
2023-04-07T06:50:41.727Z,96.90
2023-04-07T06:53:08.508Z,97.40
2023-04-07T06:55:35.552Z,96.70
2023-04-07T06:58:02.311Z,96.70
2023-04-07T07:00:30.869Z,96.40
2023-04-07T07:02:58.008Z,96.70
2023-04-07T07:05:24.996Z,96.30
2023-04-07T07:07:52.026Z,95.90
2023-04-07T07:10:20.577Z,95.90
2023-04-07T07:12:47.338Z,96.30
2023-04-07T07:15:14.071Z,96.00
2023-04-07T07:17:41.420Z,95.90
2023-04-07T07:20:08.808Z,95.90
2023-04-07T07:22:35.833Z,95.80
2023-04-07T07:27:30.299Z,95.50
2023-04-07T07:29:57.050Z,95.40
2023-04-07T07:32:23.821Z,95.10
2023-04-07T07:34:50.544Z,94.80
2023-04-07T07:37:17.474Z,95.20
2023-04-07T07:39:44.243Z,94.90
2023-04-07T07:42:10.979Z,94.80
2023-04-07T07:44:37.670Z,94.30
2023-04-07T07:47:04.471Z,94.40
2023-04-07T07:49:31.993Z,93.80
2023-04-07T07:51:59.719Z,93.50
2023-04-07T07:54:26.561Z,93.70
2023-04-07T07:56:53.236Z,93.20
2023-04-07T07:59:19.982Z,93.00
2023-04-07T08:01:46.706Z,93.00
2023-04-07T08:04:13.719Z,92.80
2023-04-07T08:06:40.786Z,92.70
2023-04-07T08:09:07.565Z,92.10
2023-04-07T08:14:01.433Z,92.40
2023-04-07T08:16:28.202Z,91.90
2023-04-07T08:21:22.248Z,91.70
2023-04-07T08:23:49.151Z,91.00
2023-04-07T08:26:16.198Z,90.90
2023-04-07T08:28:42.950Z,90.10
2023-04-07T08:31:09.741Z,90.60
2023-04-07T08:33:36.609Z,90.50
2023-04-07T08:38:31.317Z,88.40
2023-04-07T08:41:11.656Z,88.20
2023-04-07T08:43:39.907Z,87.20
2023-04-07T08:46:09.733Z,85.80
2023-04-07T08:48:38.572Z,84.20
2023-04-07T08:51:08.130Z,84.30
2023-04-07T08:53:50.464Z,83.30
2023-04-07T08:56:23.371Z,82.40
2023-04-07T08:58:51.011Z,81.70
2023-04-07T09:01:19.863Z,81.40
2023-04-07T09:03:48.715Z,82.10
2023-04-07T09:06:16.150Z,80.90
2023-04-07T09:08:42.931Z,81.60
2023-04-07T09:11:09.663Z,80.50
2023-04-07T09:13:36.437Z,80.10
2023-04-07T09:16:03.550Z,80.30
2023-04-07T09:18:30.626Z,80.50
2023-04-07T09:20:58.428Z,80.90
2023-04-07T09:23:42.373Z,78.40
2023-04-07T09:26:36.187Z,77.30
2023-04-07T09:29:04.010Z,76.40
2023-04-07T09:31:50.552Z,77.10
2023-04-07T09:34:27.870Z,75.50
2023-04-07T09:36:55.270Z,76.50
2023-04-07T09:39:21.989Z,75.90
2023-04-07T09:41:48.810Z,76.10
2023-04-07T09:44:15.745Z,77.30
2023-04-07T09:46:52.475Z,77.00
2023-04-07T09:49:20.360Z,76.50
2023-04-07T09:51:57.711Z,76.60
2023-04-07T09:54:41.761Z,75.20
2023-04-07T09:57:09.954Z,73.50
2023-04-07T09:59:39.617Z,72.30
2023-04-07T10:02:06.569Z,72.20
2023-04-07T10:04:33.402Z,72.30
2023-04-07T10:07:00.783Z,73.30
2023-04-07T10:09:28.831Z,73.70
2023-04-07T10:11:58.042Z,74.00
2023-04-07T10:14:29.983Z,73.80
2023-04-07T10:16:57.434Z,74.50
2023-04-07T10:19:26.902Z,74.30
2023-04-07T10:21:54.896Z,73.50
2023-04-07T10:24:57.621Z,73.10
2023-04-07T10:27:35.158Z,73.40
2023-04-07T10:30:06.206Z,72.70
2023-04-07T10:32:33.151Z,72.80
2023-04-07T10:35:01.137Z,72.60
2023-04-07T10:37:28.096Z,72.90
2023-04-07T10:40:19.603Z,73.30
2023-04-07T10:42:47.795Z,71.90
2023-04-07T10:45:15.692Z,71.80
2023-04-07T10:48:05.737Z,71.80
2023-04-07T10:50:32.457Z,71.60
2023-04-07T10:53:25.385Z,70.20
2023-04-07T10:55:55.839Z,69.90
2023-04-07T10:58:26.626Z,71.10
2023-04-07T11:01:11.849Z,72.30
2023-04-07T11:03:40.801Z,72.70
2023-04-07T11:06:12.665Z,72.90
2023-04-07T11:08:40.489Z,71.90
2023-04-07T11:11:11.633Z,71.80
2023-04-07T11:13:45.021Z,71.90
2023-04-07T11:16:12.533Z,71.10
2023-04-07T11:18:40.994Z,71.10
2023-04-07T11:21:08.746Z,70.80
2023-04-07T11:23:53.560Z,71.30
2023-04-07T11:26:21.459Z,71.20
2023-04-07T11:28:52.421Z,71.00
2023-04-07T11:31:26.836Z,71.10
2023-04-07T11:33:55.492Z,71.00
2023-04-07T11:36:34.563Z,71.30
2023-04-07T11:39:03.126Z,70.70
2023-04-07T11:41:32.831Z,70.50
2023-04-07T11:44:06.899Z,70.30
2023-04-07T11:46:33.844Z,70.80
2023-04-07T11:49:11.925Z,71.30
2023-04-07T11:51:39.008Z,69.50
2023-04-07T11:54:05.855Z,68.60
2023-04-07T11:56:43.540Z,68.90
2023-04-07T11:59:23.227Z,69.90
2023-04-07T12:01:51.703Z,67.20
2023-04-07T12:04:19.781Z,67.50
2023-04-07T12:06:48.332Z,67.50
2023-04-07T12:09:38.092Z,67.90
2023-04-07T12:12:07.590Z,67.80
2023-04-07T12:14:35.244Z,66.60
2023-04-07T12:17:03.547Z,65.80
2023-04-07T12:19:35.605Z,65.40
2023-04-07T12:22:02.505Z,67.00
2023-04-07T12:24:29.195Z,67.30
2023-04-07T12:26:56.189Z,66.00
2023-04-07T12:29:22.885Z,67.50
2023-04-07T12:31:51.084Z,65.40
2023-04-07T12:34:18.554Z,64.80
2023-04-07T12:36:45.633Z,65.10
2023-04-07T12:39:12.593Z,63.60
2023-04-07T12:41:39.824Z,63.80
2023-04-07T12:44:06.714Z,64.30
2023-04-07T12:46:33.929Z,65.00
2023-04-07T12:49:01.164Z,63.50
2023-04-07T12:51:28.428Z,62.70
2023-04-07T12:53:55.258Z,62.40
2023-04-07T12:56:22.462Z,62.50
2023-04-07T12:58:49.446Z,63.40
2023-04-07T13:01:16.837Z,63.90
2023-04-07T13:03:44.186Z,63.30
2023-04-07T13:06:11.590Z,64.10
2023-04-07T13:08:39.474Z,64.30
2023-04-07T13:11:06.622Z,63.50
2023-04-07T13:13:33.785Z,63.50
2023-04-07T13:16:00.945Z,63.90
2023-04-07T13:18:27.742Z,64.50
2023-04-07T13:21:10.717Z,65.00
2023-04-07T13:23:43.943Z,65.50
2023-04-07T13:26:20.559Z,65.10
2023-04-07T13:28:47.880Z,65.10
2023-04-07T13:31:16.285Z,65.40
2023-04-07T13:33:43.594Z,64.50
2023-04-07T13:36:10.420Z,64.50
2023-04-07T13:38:37.179Z,63.50
2023-04-07T13:41:04.185Z,63.70
2023-04-07T13:43:31.018Z,63.70
2023-04-07T13:45:57.726Z,62.90
2023-04-07T13:48:24.762Z,62.30
2023-04-07T13:50:51.444Z,61.60
2023-04-07T13:53:19.286Z,62.10
2023-04-07T13:55:46.335Z,62.10
2023-04-07T13:58:13.302Z,62.30
2023-04-07T14:00:40.414Z,61.70
2023-04-07T14:03:07.918Z,62.50
2023-04-07T14:05:35.787Z,62.40
2023-04-07T14:08:02.555Z,62.70
2023-04-07T14:10:29.344Z,63.10
2023-04-07T14:12:56.317Z,62.80
2023-04-07T14:15:23.167Z,62.80
2023-04-07T14:17:49.939Z,63.20
2023-04-07T14:20:16.791Z,63.60
2023-04-07T14:22:44.402Z,63.00
2023-04-07T14:25:11.498Z,62.60
2023-04-07T14:27:38.261Z,62.80
2023-04-07T14:30:05.620Z,62.80
2023-04-07T14:32:34.297Z,63.20
2023-04-07T14:35:01.394Z,63.70
2023-04-07T14:37:29.057Z,62.90
2023-04-07T14:42:25.918Z,63.40
2023-04-07T14:44:53.129Z,63.90
2023-04-07T14:47:20.132Z,64.70
2023-04-07T14:49:47.072Z,63.40
2023-04-07T14:52:14.108Z,63.70
2023-04-07T14:54:40.957Z,63.30
2023-04-07T14:57:07.822Z,62.80
2023-04-07T14:59:34.879Z,63.20
2023-04-07T15:02:01.764Z,64.20
2023-04-07T15:04:29.000Z,65.10
2023-04-07T15:06:56.232Z,64.30
2023-04-07T15:09:22.961Z,63.30
2023-04-07T15:11:49.694Z,63.20
2023-04-07T15:14:16.356Z,63.70
2023-04-07T15:16:43.204Z,62.90
2023-04-07T15:19:09.970Z,62.70
2023-04-07T15:21:36.706Z,62.70
2023-04-07T15:24:03.549Z,62.40
2023-04-07T15:26:30.299Z,62.70
2023-04-07T15:28:56.980Z,62.80
2023-04-07T15:31:25.333Z,62.40
2023-04-07T15:33:52.672Z,63.10
2023-04-07T15:36:19.486Z,62.30
2023-04-07T15:38:46.346Z,62.30
2023-04-07T15:41:16.933Z,63.00
2023-04-07T15:43:43.710Z,63.50
2023-04-07T15:46:10.374Z,62.90
2023-04-07T15:48:37.059Z,63.10
2023-04-07T15:51:03.906Z,63.30
2023-04-07T15:53:30.901Z,63.90
2023-04-07T15:55:57.707Z,63.10
2023-04-07T15:58:24.511Z,62.90
2023-04-07T16:00:51.365Z,62.70
2023-04-07T16:03:18.349Z,63.20
2023-04-07T16:05:45.178Z,63.20
2023-04-07T16:08:13.711Z,63.70
2023-04-07T16:10:40.774Z,63.90
2023-04-07T16:13:07.513Z,63.90
2023-04-07T16:15:40.749Z,63.60
2023-04-07T16:18:12.272Z,63.80
2023-04-07T16:20:39.258Z,63.80
2023-04-07T16:23:05.980Z,63.40
2023-04-07T16:25:32.691Z,64.10
2023-04-07T16:27:59.411Z,63.80
2023-04-07T16:30:26.460Z,64.10
2023-04-07T16:32:53.281Z,63.90
2023-04-07T16:35:20.283Z,64.40
2023-04-07T16:37:47.176Z,64.10
2023-04-07T16:40:14.022Z,64.20
2023-04-07T16:42:40.805Z,64.30
2023-04-07T16:45:08.571Z,64.00
2023-04-07T16:47:35.620Z,64.10
2023-04-07T16:50:04.148Z,64.40
2023-04-07T16:52:31.453Z,64.50
2023-04-07T16:54:58.415Z,65.30
2023-04-07T16:57:25.276Z,65.10
2023-04-07T16:59:52.126Z,64.90
2023-04-07T17:02:19.160Z,64.50
2023-04-07T17:07:13.368Z,64.50
2023-04-07T17:09:40.130Z,64.50
2023-04-07T17:12:07.017Z,64.30
2023-04-07T17:14:34.398Z,64.70
2023-04-07T17:17:01.872Z,64.90
2023-04-07T17:19:28.839Z,64.70
2023-04-07T17:21:55.671Z,65.00
2023-04-07T17:24:22.948Z,65.00
2023-04-07T17:26:49.709Z,65.20
2023-04-07T17:29:17.087Z,65.20
2023-04-07T17:31:44.202Z,65.40
2023-04-07T17:34:11.928Z,65.70
2023-04-07T17:36:38.827Z,66.00
2023-04-07T17:39:05.616Z,65.90
2023-04-07T17:41:35.673Z,66.40
2023-04-07T17:44:02.623Z,66.40
2023-04-07T17:46:29.777Z,66.70
2023-04-07T17:48:59.138Z,66.60
2023-04-07T17:51:27.044Z,66.80
2023-04-07T17:53:54.396Z,66.80
2023-04-07T17:56:21.583Z,66.80
2023-04-07T17:58:48.672Z,67.10
2023-04-07T18:01:17.012Z,67.40
2023-04-07T18:03:44.159Z,67.40
2023-04-07T18:06:16.113Z,67.70
2023-04-07T18:08:44.806Z,67.60
2023-04-07T18:11:11.771Z,67.50
2023-04-07T18:13:38.543Z,67.70
2023-04-07T18:16:09.368Z,68.00
2023-04-07T18:18:38.070Z,67.70
2023-04-07T18:21:06.683Z,67.70
2023-04-07T18:23:33.694Z,67.80
2023-04-07T18:26:05.078Z,67.70
2023-04-07T18:28:32.010Z,68.40
2023-04-07T18:31:07.673Z,68.50
2023-04-07T18:33:35.803Z,68.20
2023-04-07T18:36:07.769Z,68.30
2023-04-07T18:38:35.779Z,68.30
2023-04-07T18:41:02.732Z,68.20
2023-04-07T18:43:30.142Z,68.30
2023-04-07T18:45:56.906Z,68.50
2023-04-07T18:48:23.700Z,68.40
2023-04-07T18:50:54.974Z,68.70
2023-04-07T18:53:23.561Z,68.90
2023-04-07T18:55:50.821Z,68.60
2023-04-07T18:58:17.661Z,68.50
2023-04-07T19:00:44.717Z,68.50
2023-04-07T19:03:12.085Z,68.70
2023-04-07T19:05:39.911Z,69.10
2023-04-07T19:08:07.092Z,69.10
2023-04-07T19:10:34.829Z,69.40
2023-04-07T19:15:34.023Z,69.50
2023-04-07T19:18:04.342Z,69.70
2023-04-07T19:20:31.292Z,70.00
2023-04-07T19:22:58.244Z,70.20
2023-04-07T19:25:25.291Z,70.40
2023-04-07T19:27:52.267Z,71.00
2023-04-07T19:30:19.438Z,70.90
2023-04-07T19:32:46.258Z,71.40
2023-04-07T19:35:13.096Z,71.90
2023-04-07T19:37:42.618Z,71.90
2023-04-07T19:40:10.057Z,72.20
2023-04-07T19:42:38.001Z,72.70
2023-04-07T19:45:07.992Z,73.20
2023-04-07T19:47:35.937Z,73.50
2023-04-07T19:50:03.978Z,74.00
2023-04-07T19:52:32.546Z,74.30
2023-04-07T19:55:00.930Z,74.90
2023-04-07T19:57:28.516Z,75.00
2023-04-07T19:59:55.345Z,75.70
2023-04-07T20:02:22.134Z,76.30
2023-04-07T20:04:49.072Z,76.30
2023-04-07T20:07:15.884Z,77.90
2023-04-07T20:09:42.563Z,78.30
2023-04-07T20:12:09.382Z,79.40
2023-04-07T20:14:36.575Z,80.40
2023-04-07T20:17:03.431Z,81.50
2023-04-07T20:19:30.321Z,82.30
2023-04-07T20:21:57.326Z,82.70
2023-04-07T20:24:24.280Z,83.60
2023-04-07T20:26:50.987Z,83.60
2023-04-07T20:29:18.133Z,84.10
2023-04-07T20:31:45.777Z,84.60
2023-04-07T20:34:12.490Z,85.00
2023-04-07T20:36:39.244Z,85.40
2023-04-07T20:39:06.405Z,85.70
2023-04-07T20:41:33.109Z,85.80
2023-04-07T20:43:59.886Z,85.40
2023-04-07T20:46:26.753Z,84.00
2023-04-07T20:48:53.513Z,83.00
2023-04-07T20:51:20.199Z,82.20
2023-04-07T20:53:47.022Z,81.20
2023-04-07T20:56:14.231Z,80.90
2023-04-07T20:58:41.071Z,80.60
2023-04-07T21:01:07.828Z,80.20
2023-04-07T21:03:35.958Z,79.80
2023-04-07T21:06:04.766Z,79.90
2023-04-07T21:08:31.593Z,79.90
2023-04-07T21:10:58.555Z,80.10
2023-04-07T21:13:27.142Z,80.00
2023-04-07T21:15:53.969Z,80.40
2023-04-07T21:18:20.915Z,80.40
2023-04-07T21:20:47.565Z,80.70
2023-04-07T21:23:14.322Z,81.10
2023-04-07T21:25:41.112Z,81.30
2023-04-07T21:28:07.852Z,81.80
2023-04-07T21:30:34.541Z,82.10
2023-04-07T21:33:01.390Z,82.40
2023-04-07T21:35:28.908Z,82.40
2023-04-07T21:37:56.313Z,82.70
2023-04-07T21:40:23.067Z,83.00
2023-04-07T21:42:51.833Z,83.50
2023-04-07T21:45:19.522Z,83.80
2023-04-07T21:47:46.798Z,83.60
2023-04-07T21:50:13.737Z,84.30
2023-04-07T21:52:41.162Z,84.30
2023-04-07T21:55:09.990Z,84.10
2023-04-07T21:57:36.961Z,84.10
2023-04-07T22:00:04.290Z,84.60
2023-04-07T22:02:31.262Z,84.60
2023-04-07T22:04:58.087Z,84.60
2023-04-07T22:07:24.865Z,84.80
2023-04-07T22:09:51.582Z,85.20
2023-04-07T22:12:18.296Z,85.30
2023-04-07T22:14:45.322Z,85.20
2023-04-07T22:17:12.034Z,85.30
2023-04-07T22:19:38.775Z,85.40
2023-04-07T22:22:07.652Z,85.40
2023-04-07T22:24:34.926Z,85.90
2023-04-07T22:27:02.319Z,86.00
2023-04-07T22:29:29.153Z,86.00
2023-04-07T22:31:55.897Z,86.10
2023-04-07T22:34:22.703Z,86.30
2023-04-07T22:36:49.442Z,86.70
2023-04-07T22:39:16.177Z,86.80
2023-04-07T22:41:42.909Z,86.70
2023-04-07T22:44:09.637Z,86.80
2023-04-07T22:46:36.405Z,87.00
2023-04-07T22:51:30.312Z,87.20
2023-04-07T22:53:57.171Z,87.50
2023-04-07T22:56:24.317Z,88.00
2023-04-07T22:58:51.646Z,88.30
2023-04-07T23:01:18.734Z,88.60
2023-04-07T23:03:45.735Z,88.90
2023-04-07T23:06:12.960Z,89.20
2023-04-07T23:08:39.727Z,89.30
2023-04-07T23:11:09.705Z,89.30
2023-04-07T23:13:36.473Z,89.50
2023-04-07T23:16:05.593Z,89.80
2023-04-07T23:18:32.484Z,90.20
2023-04-07T23:20:59.214Z,90.30
2023-04-07T23:23:25.935Z,90.40
2023-04-07T23:25:52.629Z,91.10
2023-04-07T23:28:19.336Z,91.20
2023-04-07T23:30:46.102Z,91.50
2023-04-07T23:33:12.839Z,91.80
2023-04-07T23:35:39.565Z,92.00
2023-04-07T23:38:08.747Z,92.00
2023-04-07T23:40:35.531Z,92.30
2023-04-07T23:43:02.412Z,92.60
2023-04-07T23:45:29.345Z,92.40
2023-04-07T23:47:56.172Z,92.30
2023-04-07T23:50:23.388Z,92.70
2023-04-07T23:52:50.070Z,92.70
2023-04-07T23:55:16.850Z,92.70
2023-04-07T23:57:43.721Z,92.90
